Time;durP1;ratioP1;P1;durP2;ratioP2;P2;SDS_P1;SDS_P2;PMS_P1;PMS_P2;Temp;Humidity;BMP_temperature;BMP_pressure;BME280_temperature;BME280_humidity;BME280_pressure;Samples;Min_cycle;Max_cycle;Signal;HPM_P1;HPM_P2
2023/06/08 00:00:14;;;;;;;1.57;1.47;;;;;;;;;;5000235;28;20458;-76
2023/06/08 00:02:42;;;;;;;1.57;1.40;;;;;;;;;;4986384;28;20549;-77
2023/06/08 00:05:13;;;;;;;0.70;0.70;;;;;;;;;;5005398;28;20918;-77
2023/06/08 00:07:43;;;;;;;0.73;0.73;;;;;;;;;;5011552;28;20566;-76
2023/06/08 00:10:10;;;;;;;0.70;0.70;;;;;;;;;;5003961;28;20436;-76
2023/06/08 00:12:38;;;;;;;0.80;0.80;;;;;;;;;;5004268;28;20819;-77
2023/06/08 00:15:05;;;;;;;0.97;0.87;;;;;;;;;;5008858;28;21352;-76
2023/06/08 00:17:32;;;;;;;1.10;1.00;;;;;;;;;;5002003;28;20449;-76
2023/06/08 00:19:59;;;;;;;0.70;0.70;;;;;;;;;;5004033;28;20436;-76
2023/06/08 00:22:26;;;;;;;0.80;0.80;;;;;;;;;;5004696;28;20467;-76
2023/06/08 00:24:53;;;;;;;0.80;0.70;;;;;;;;;;5006850;28;20524;-79
2023/06/08 00:27:20;;;;;;;1.23;1.13;;;;;;;;;;5009290;28;20494;-76
2023/06/08 00:29:48;;;;;;;2.03;1.93;;;;;;;;;;4995071;28;20450;-76
2023/06/08 00:32:14;;;;;;;1.50;1.37;;;;;;;;;;4996650;28;20513;-78
2023/06/08 00:34:41;;;;;;;0.70;0.70;;;;;;;;;;5007490;28;20489;-78
2023/06/08 00:37:07;;;;;;;0.90;0.90;;;;;;;;;;5008925;28;21023;-77
2023/06/08 00:39:34;;;;;;;0.77;0.70;;;;;;;;;;5008062;28;20439;-76
2023/06/08 00:42:01;;;;;;;0.97;0.90;;;;;;;;;;4997842;28;20540;-76
2023/06/08 00:44:27;;;;;;;0.80;0.80;;;;;;;;;;4991897;28;20965;-77
2023/06/08 00:46:55;;;;;;;0.90;0.90;;;;;;;;;;5002442;28;20432;-76
2023/06/08 00:49:23;;;;;;;0.80;0.70;;;;;;;;;;5005576;28;20515;-77
2023/06/08 00:51:50;;;;;;;0.90;0.90;;;;;;;;;;4999922;28;20810;-76
2023/06/08 00:54:17;;;;;;;1.43;1.27;;;;;;;;;;5007389;28;20876;-76
2023/06/08 00:56:48;;;;;;;1.10;1.00;;;;;;;;;;5008351;28;20485;-76
2023/06/08 00:59:18;;;;;;;1.47;1.20;;;;;;;;;;5007161;28;20428;-77
2023/06/08 01:01:45;;;;;;;2.17;2.00;;;;;;;;;;4989211;28;20455;-76
2023/06/08 01:04:14;;;;;;;1.20;1.10;;;;;;;;;;5001122;28;20437;-76
2023/06/08 01:06:45;;;;;;;0.77;0.70;;;;;;;;;;5005068;28;20543;-77
2023/06/08 01:09:15;;;;;;;1.00;0.90;;;;;;;;;;5008152;28;20459;-76
2023/06/08 01:11:47;;;;;;;0.80;0.70;;;;;;;;;;5000009;28;20567;-75
2023/06/08 01:14:18;;;;;;;1.00;0.90;;;;;;;;;;5007148;28;20486;-76
2023/06/08 01:16:49;;;;;;;0.90;0.90;;;;;;;;;;5007153;28;20450;-78
2023/06/08 01:19:28;;;;;;;0.70;0.70;;;;;;;;;;5000434;28;20491;-76
2023/06/08 01:22:00;;;;;;;9.37;2.03;;;;;;;;;;5003124;28;20553;-77
2023/06/08 01:24:31;;;;;;;0.70;0.70;;;;;;;;;;4998987;28;20478;-76
2023/06/08 01:26:59;;;;;;;0.80;0.70;;;;;;;;;;5001033;28;20429;-77
2023/06/08 01:29:27;;;;;;;1.10;1.00;;;;;;;;;;5010682;28;20459;-80
2023/06/08 01:31:55;;;;;;;1.17;1.10;;;;;;;;;;4989152;28;20480;-76
2023/06/08 01:34:21;;;;;;;1.20;1.10;;;;;;;;;;5002103;28;20514;-76
2023/06/08 01:36:51;;;;;;;0.87;0.87;;;;;;;;;;5006278;28;20969;-78
2023/06/08 01:39:22;;;;;;;1.37;1.27;;;;;;;;;;5003282;28;20950;-77
2023/06/08 01:41:52;;;;;;;0.73;0.70;;;;;;;;;;5000795;28;20453;-77
2023/06/08 01:44:20;;;;;;;0.80;0.80;;;;;;;;;;5006818;28;20513;-76
2023/06/08 01:46:50;;;;;;;1.10;1.00;;;;;;;;;;5002170;28;20517;-77
2023/06/08 01:49:17;;;;;;;0.90;0.90;;;;;;;;;;4999644;28;20437;-76
2023/06/08 01:51:45;;;;;;;0.80;0.80;;;;;;;;;;5004525;28;20456;-77
2023/06/08 01:54:12;;;;;;;1.07;0.97;;;;;;;;;;4986922;28;20524;-77
2023/06/08 01:56:39;;;;;;;1.47;1.37;;;;;;;;;;5008611;28;20442;-78
2023/06/08 01:59:09;;;;;;;1.33;1.23;;;;;;;;;;4998857;28;20945;-78
2023/06/08 02:01:36;;;;;;;0.80;0.80;;;;;;;;;;4992681;28;20441;-76
2023/06/08 02:04:04;;;;;;;0.70;0.70;;;;;;;;;;4988702;28;20448;-77
2023/06/08 02:06:31;;;;;;;0.70;0.70;;;;;;;;;;5003084;28;20820;-75
2023/06/08 02:08:58;;;;;;;0.80;0.80;;;;;;;;;;5003570;28;20460;-76
2023/06/08 02:11:25;;;;;;;0.80;0.80;;;;;;;;;;4997257;28;20472;-75
2023/06/08 02:13:52;;;;;;;0.70;0.70;;;;;;;;;;4988069;28;20551;-75
2023/06/08 02:16:20;;;;;;;0.80;0.73;;;;;;;;;;5007692;28;20485;-75
2023/06/08 02:18:50;;;;;;;0.80;0.80;;;;;;;;;;5002693;28;20430;-77
2023/06/08 02:21:19;;;;;;;0.80;0.80;;;;;;;;;;5000181;28;20963;-75
2023/06/08 02:23:46;;;;;;;1.10;1.00;;;;;;;;;;4990780;28;20463;-76
2023/06/08 02:26:13;;;;;;;2.00;1.40;;;;;;;;;;4990483;28;20446;-75
2023/06/08 02:28:41;;;;;;;1.07;1.00;;;;;;;;;;4998942;28;20437;-75
2023/06/08 02:31:07;;;;;;;0.80;0.80;;;;;;;;;;5008979;28;20470;-75
2023/06/08 02:33:37;;;;;;;0.90;0.80;;;;;;;;;;4980568;28;20959;-75
2023/06/08 02:36:06;;;;;;;0.70;0.70;;;;;;;;;;5004489;28;20559;-76
2023/06/08 02:38:32;;;;;;;0.93;0.90;;;;;;;;;;5004961;28;20546;-76
2023/06/08 02:41:00;;;;;;;0.80;0.80;;;;;;;;;;5008631;28;20460;-75
2023/06/08 02:43:26;;;;;;;1.00;0.90;;;;;;;;;;4995969;28;20479;-76
2023/06/08 02:45:53;;;;;;;0.70;0.70;;;;;;;;;;5004791;28;20449;-74
2023/06/08 02:48:23;;;;;;;0.80;0.80;;;;;;;;;;5007379;28;20450;-75
2023/06/08 02:50:52;;;;;;;0.70;0.60;;;;;;;;;;5007144;28;20454;-75
2023/06/08 02:53:18;;;;;;;1.20;1.10;;;;;;;;;;5008282;28;20470;-75
2023/06/08 02:55:45;;;;;;;0.80;0.80;;;;;;;;;;5000435;28;20553;-75
2023/06/08 02:58:18;;;;;;;0.70;0.63;;;;;;;;;;5001576;28;20461;-78
2023/06/08 03:00:44;;;;;;;0.70;0.70;;;;;;;;;;5009458;28;20445;-75
2023/06/08 03:03:24;;;;;;;1.30;1.20;;;;;;;;;;5006113;28;20452;-75
2023/06/08 03:05:59;;;;;;;0.80;0.80;;;;;;;;;;4989168;28;20442;-75
2023/06/08 03:08:31;;;;;;;1.20;1.10;;;;;;;;;;5000694;28;20534;-75
2023/06/08 03:10:59;;;;;;;1.00;1.00;;;;;;;;;;5000823;28;20453;-75
2023/06/08 03:13:26;;;;;;;0.70;0.60;;;;;;;;;;5010907;28;20893;-76
2023/06/08 03:15:53;;;;;;;0.70;0.70;;;;;;;;;;4999716;28;21022;-76
2023/06/08 03:18:19;;;;;;;2.60;1.53;;;;;;;;;;4999216;28;20839;-75
2023/06/08 03:20:47;;;;;;;1.80;0.97;;;;;;;;;;5011147;28;20443;-74
2023/06/08 03:23:17;;;;;;;0.70;0.70;;;;;;;;;;5003324;28;20528;-75
2023/06/08 03:25:48;;;;;;;0.70;0.70;;;;;;;;;;5011924;28;20444;-76
2023/06/08 03:28:15;;;;;;;0.90;0.90;;;;;;;;;;4996032;28;21011;-74
2023/06/08 03:30:42;;;;;;;1.83;1.73;;;;;;;;;;4994203;28;20943;-73
2023/06/08 03:33:10;;;;;;;0.70;0.70;;;;;;;;;;5020420;28;20799;-77
2023/06/08 03:35:45;;;;;;;1.40;1.20;;;;;;;;;;5008798;28;20553;-75
2023/06/08 03:38:27;;;;;;;0.70;0.70;;;;;;;;;;5009630;28;20477;-75
2023/06/08 03:40:59;;;;;;;0.97;0.87;;;;;;;;;;5005524;28;20465;-76
2023/06/08 03:43:26;;;;;;;0.70;0.60;;;;;;;;;;5017455;28;20444;-74
2023/06/08 03:45:55;;;;;;;1.33;1.10;;;;;;;;;;5008029;28;20942;-74
2023/06/08 03:48:22;;;;;;;1.47;1.37;;;;;;;;;;5009071;28;20447;-75
2023/06/08 03:50:51;;;;;;;1.87;1.77;;;;;;;;;;5009703;28;20826;-75
2023/06/08 03:53:20;;;;;;;1.10;1.10;;;;;;;;;;5011450;28;20507;-75
2023/06/08 03:55:48;;;;;;;1.30;1.20;;;;;;;;;;5007105;28;20477;-75
2023/06/08 03:58:16;;;;;;;1.73;1.63;;;;;;;;;;4990569;28;20452;-75
2023/06/08 04:00:45;;;;;;;0.80;0.80;;;;;;;;;;5008156;28;20508;-75
2023/06/08 04:03:13;;;;;;;1.13;1.03;;;;;;;;;;5004396;28;20919;-77
2023/06/08 04:05:41;;;;;;;0.70;0.70;;;;;;;;;;5009745;28;20447;-74
2023/06/08 04:08:08;;;;;;;0.73;0.73;;;;;;;;;;5005461;28;20501;-76
2023/06/08 04:10:35;;;;;;;1.57;1.20;;;;;;;;;;5002767;28;20445;-76
2023/06/08 04:13:03;;;;;;;0.70;0.60;;;;;;;;;;5006355;28;20485;-74
2023/06/08 04:15:30;;;;;;;0.70;0.70;;;;;;;;;;5006253;28;20473;-75
2023/06/08 04:17:57;;;;;;;0.90;0.90;;;;;;;;;;5003298;28;21031;-76
2023/06/08 04:20:25;;;;;;;1.00;1.00;;;;;;;;;;5004628;28;20827;-76
2023/06/08 04:22:53;;;;;;;1.27;1.17;;;;;;;;;;5003568;28;20497;-73
2023/06/08 04:25:25;;;;;;;1.20;1.10;;;;;;;;;;5004709;28;20450;-75
2023/06/08 04:27:53;;;;;;;0.80;0.80;;;;;;;;;;4999562;28;20454;-75
2023/06/08 04:30:22;;;;;;;0.70;0.70;;;;;;;;;;5009276;28;20452;-75
2023/06/08 04:32:49;;;;;;;0.70;0.70;;;;;;;;;;4991092;28;20440;-77
2023/06/08 04:35:17;;;;;;;1.00;0.90;;;;;;;;;;5004584;28;21019;-76
2023/06/08 04:37:44;;;;;;;0.90;0.90;;;;;;;;;;4982486;28;20464;-75
2023/06/08 04:40:12;;;;;;;4.30;1.97;;;;;;;;;;5003269;28;20441;-74
2023/06/08 04:42:40;;;;;;;0.70;0.70;;;;;;;;;;5002638;28;20446;-75
2023/06/08 04:45:08;;;;;;;1.20;1.10;;;;;;;;;;5001006;28;20768;-74
2023/06/08 04:47:40;;;;;;;0.73;0.73;;;;;;;;;;5007059;28;20454;-74
2023/06/08 04:50:08;;;;;;;0.73;0.73;;;;;;;;;;5006189;28;20534;-75
2023/06/08 04:52:40;;;;;;;2.50;1.80;;;;;;;;;;5006003;28;20476;-76
2023/06/08 04:55:07;;;;;;;2.90;1.67;;;;;;;;;;5001752;28;21272;-75
2023/06/08 04:57:34;;;;;;;2.37;1.53;;;;;;;;;;5008537;28;21099;-77
2023/06/08 05:00:01;;;;;;;1.00;1.00;;;;;;;;;;5000695;28;20449;-75
2023/06/08 05:02:28;;;;;;;1.77;1.60;;;;;;;;;;5002203;28;20873;-76
2023/06/08 05:04:58;;;;;;;1.10;1.00;;;;;;;;;;4992183;28;20468;-75
2023/06/08 05:07:25;;;;;;;0.90;0.90;;;;;;;;;;5002182;28;20516;-76
2023/06/08 05:09:51;;;;;;;1.27;1.17;;;;;;;;;;5010376;28;20439;-77
2023/06/08 05:12:18;;;;;;;1.07;1.00;;;;;;;;;;5000580;28;20475;-75
2023/06/08 05:14:45;;;;;;;1.27;1.17;;;;;;;;;;5004713;28;20537;-75
2023/06/08 05:17:11;;;;;;;0.80;0.80;;;;;;;;;;4998047;28;20476;-76
2023/06/08 05:19:39;;;;;;;0.90;0.90;;;;;;;;;;5002165;28;20596;-76
2023/06/08 05:22:07;;;;;;;0.90;0.90;;;;;;;;;;5009824;28;20544;-74
2023/06/08 05:24:33;;;;;;;1.40;1.30;;;;;;;;;;5011209;28;20540;-77
2023/06/08 05:27:00;;;;;;;0.80;0.80;;;;;;;;;;4997552;28;20440;-76
2023/06/08 05:29:26;;;;;;;1.80;1.10;;;;;;;;;;5009490;28;20447;-76
2023/06/08 05:31:53;;;;;;;0.80;0.80;;;;;;;;;;5007684;28;20445;-74
2023/06/08 05:34:20;;;;;;;4.60;1.47;;;;;;;;;;5003392;28;21006;-76
2023/06/08 05:36:46;;;;;;;1.00;1.00;;;;;;;;;;5002850;28;20873;-75
2023/06/08 05:39:14;;;;;;;1.77;1.67;;;;;;;;;;5011815;28;20876;-76
2023/06/08 05:41:41;;;;;;;3.10;2.80;;;;;;;;;;5006747;28;21399;-76
2023/06/08 05:44:08;;;;;;;0.70;0.70;;;;;;;;;;5002739;28;20562;-75
2023/06/08 05:46:35;;;;;;;2.20;1.73;;;;;;;;;;5003817;28;20823;-76
2023/06/08 05:49:03;;;;;;;0.80;0.80;;;;;;;;;;5001237;28;20911;-76
2023/06/08 05:51:30;;;;;;;1.43;1.37;;;;;;;;;;5001483;28;20448;-75
2023/06/08 05:53:56;;;;;;;0.80;0.80;;;;;;;;;;5004354;28;20440;-76
2023/06/08 05:56:26;;;;;;;0.73;0.73;;;;;;;;;;4999425;28;20469;-76
2023/06/08 05:58:52;;;;;;;0.70;0.70;;;;;;;;;;5002213;28;20872;-74
2023/06/08 06:01:20;;;;;;;1.27;1.17;;;;;;;;;;5006290;28;20541;-76
2023/06/08 06:03:47;;;;;;;1.23;1.13;;;;;;;;;;5002166;28;20972;-77
2023/06/08 06:06:14;;;;;;;0.80;0.80;;;;;;;;;;5007610;28;20434;-77
2023/06/08 06:08:40;;;;;;;0.90;0.90;;;;;;;;;;5003139;28;20483;-76
2023/06/08 06:11:10;;;;;;;1.17;1.07;;;;;;;;;;4997659;28;20439;-75
2023/06/08 06:13:38;;;;;;;1.67;1.57;;;;;;;;;;5002597;28;20942;-76
2023/06/08 06:16:05;;;;;;;0.90;0.90;;;;;;;;;;5003801;28;20482;-75
2023/06/08 06:18:32;;;;;;;1.20;1.10;;;;;;;;;;5005929;28;20443;-76
2023/06/08 06:20:59;;;;;;;0.80;0.80;;;;;;;;;;5002340;28;20468;-75
2023/06/08 06:23:26;;;;;;;1.10;1.00;;;;;;;;;;5005814;28;20516;-75
2023/06/08 06:25:53;;;;;;;1.97;1.77;;;;;;;;;;5006251;28;20442;-75
2023/06/08 06:28:20;;;;;;;8.33;1.80;;;;;;;;;;5006655;28;20534;-74
2023/06/08 06:30:48;;;;;;;0.70;0.70;;;;;;;;;;5008656;28;21018;-76
2023/06/08 06:33:15;;;;;;;0.70;0.70;;;;;;;;;;4988519;28;20475;-77
2023/06/08 06:35:42;;;;;;;1.23;1.13;;;;;;;;;;5009671;28;20508;-75
2023/06/08 06:38:08;;;;;;;1.63;1.53;;;;;;;;;;4994527;28;20469;-75
2023/06/08 06:40:35;;;;;;;1.83;1.73;;;;;;;;;;5004535;28;20437;-77
2023/06/08 06:43:02;;;;;;;0.80;0.80;;;;;;;;;;5006937;28;20445;-74
2023/06/08 06:45:40;;;;;;;1.37;1.27;;;;;;;;;;4992350;28;20453;-77
2023/06/08 06:48:08;;;;;;;0.80;0.80;;;;;;;;;;5009303;28;20450;-75
2023/06/08 06:50:34;;;;;;;1.00;1.00;;;;;;;;;;5008190;28;20439;-75
2023/06/08 06:53:02;;;;;;;0.80;0.80;;;;;;;;;;5003813;28;20455;-75
2023/06/08 06:55:34;;;;;;;1.30;1.20;;;;;;;;;;5001563;28;20808;-77
2023/06/08 06:58:02;;;;;;;0.70;0.70;;;;;;;;;;5006370;28;20495;-77
2023/06/08 07:00:32;;;;;;;0.73;0.70;;;;;;;;;;4995107;28;20814;-77
2023/06/08 07:02:58;;;;;;;2.50;2.30;;;;;;;;;;5003993;28;20537;-73
2023/06/08 07:05:26;;;;;;;1.93;1.33;;;;;;;;;;5002587;28;20473;-76
2023/06/08 07:07:53;;;;;;;1.17;1.10;;;;;;;;;;5003733;28;20984;-76
2023/06/08 07:10:20;;;;;;;1.17;1.07;;;;;;;;;;5003362;28;20492;-78
2023/06/08 07:12:49;;;;;;;1.43;1.33;;;;;;;;;;5002938;28;20462;-75
2023/06/08 07:15:17;;;;;;;0.90;0.90;;;;;;;;;;5007374;28;20434;-75
2023/06/08 07:17:45;;;;;;;0.80;0.80;;;;;;;;;;5003614;28;20496;-76
2023/06/08 07:20:12;;;;;;;0.80;0.80;;;;;;;;;;5003918;28;21034;-75
2023/06/08 07:22:41;;;;;;;0.70;0.63;;;;;;;;;;5007405;28;20484;-75
2023/06/08 07:25:27;;;;;;;0.80;0.80;;;;;;;;;;5015552;28;20446;-74
2023/06/08 07:28:14;;;;;;;1.33;1.03;;;;;;;;;;5009920;28;20917;-75
2023/06/08 07:30:41;;;;;;;0.83;0.83;;;;;;;;;;5011293;28;20445;-76
2023/06/08 07:33:08;;;;;;;1.33;1.23;;;;;;;;;;5001605;28;20536;-75
2023/06/08 07:35:35;;;;;;;0.77;0.73;;;;;;;;;;5007174;28;20523;-76
2023/06/08 07:38:03;;;;;;;1.43;1.23;;;;;;;;;;4991402;28;20516;-75
2023/06/08 07:40:30;;;;;;;1.13;1.03;;;;;;;;;;5002899;28;20434;-76
2023/06/08 07:42:57;;;;;;;0.80;0.80;;;;;;;;;;5016141;28;20413;-75
2023/06/08 07:45:24;;;;;;;3.33;1.87;;;;;;;;;;4998068;28;20917;-75
2023/06/08 07:47:51;;;;;;;0.93;0.90;;;;;;;;;;5008790;28;20802;-76
2023/06/08 07:50:18;;;;;;;0.80;0.80;;;;;;;;;;5000071;28;20513;-74
2023/06/08 07:52:45;;;;;;;0.80;0.70;;;;;;;;;;5007705;28;20449;-75
2023/06/08 07:55:13;;;;;;;0.80;0.70;;;;;;;;;;4987081;28;20438;-75
2023/06/08 07:57:40;;;;;;;4.00;2.67;;;;;;;;;;5003028;28;20494;-75
2023/06/08 08:00:08;;;;;;;0.77;0.70;;;;;;;;;;5004481;28;20449;-76
2023/06/08 08:02:38;;;;;;;1.30;1.20;;;;;;;;;;5008788;28;20444;-75
2023/06/08 08:05:10;;;;;;;0.80;0.80;;;;;;;;;;5004679;28;20425;-76
2023/06/08 08:07:40;;;;;;;1.07;0.97;;;;;;;;;;5002873;28;20431;-76
2023/06/08 08:10:07;;;;;;;0.80;0.70;;;;;;;;;;4990722;28;20413;-77
2023/06/08 08:12:35;;;;;;;1.10;1.00;;;;;;;;;;5000488;28;20762;-76
2023/06/08 08:15:02;;;;;;;0.70;0.70;;;;;;;;;;5000354;28;20415;-76
2023/06/08 08:17:29;;;;;;;1.47;1.37;;;;;;;;;;5002728;28;20469;-78
2023/06/08 08:19:56;;;;;;;0.97;0.87;;;;;;;;;;4989266;28;20497;-76
2023/06/08 08:22:23;;;;;;;2.70;1.40;;;;;;;;;;5010217;28;20557;-75
2023/06/08 08:24:50;;;;;;;0.80;0.80;;;;;;;;;;5008464;28;20428;-76
2023/06/08 08:27:17;;;;;;;0.80;0.80;;;;;;;;;;5005850;28;20434;-76
2023/06/08 08:29:45;;;;;;;0.90;0.90;;;;;;;;;;5003678;28;20770;-76
2023/06/08 08:32:12;;;;;;;0.87;0.80;;;;;;;;;;5005742;28;20435;-77
2023/06/08 08:34:38;;;;;;;1.80;1.70;;;;;;;;;;4996976;28;20551;-78
2023/06/08 08:37:05;;;;;;;0.70;0.70;;;;;;;;;;5006912;28;20543;-81
2023/06/08 08:39:32;;;;;;;1.07;0.97;;;;;;;;;;4998781;28;20414;-81
2023/06/08 08:42:01;;;;;;;2.17;1.07;;;;;;;;;;5005809;28;20474;-81
2023/06/08 08:44:32;;;;;;;1.27;0.90;;;;;;;;;;4999793;28;20467;-80
2023/06/08 08:47:03;;;;;;;1.00;0.90;;;;;;;;;;5000452;28;20488;-79
2023/06/08 08:49:32;;;;;;;0.80;0.70;;;;;;;;;;4998653;28;20405;-81
2023/06/08 08:52:01;;;;;;;1.63;1.00;;;;;;;;;;5003210;28;20462;-80
2023/06/08 08:54:33;;;;;;;0.73;0.70;;;;;;;;;;4995863;28;20985;-78
2023/06/08 08:57:00;;;;;;;0.70;0.60;;;;;;;;;;5002838;28;20481;-76
2023/06/08 08:59:28;;;;;;;1.40;1.30;;;;;;;;;;4984570;28;20465;-76
2023/06/08 09:01:55;;;;;;;0.70;0.60;;;;;;;;;;5000583;28;20458;-78
2023/06/08 09:04:23;;;;;;;1.03;0.93;;;;;;;;;;5001790;28;20461;-77
2023/06/08 09:06:50;;;;;;;1.40;1.30;;;;;;;;;;4996647;28;20501;-79
2023/06/08 09:09:23;;;;;;;1.07;1.00;;;;;;;;;;5001971;28;20441;-75
2023/06/08 09:11:57;;;;;;;0.80;0.80;;;;;;;;;;5002108;28;21156;-78
2023/06/08 09:14:24;;;;;;;0.80;0.70;;;;;;;;;;4994833;28;20418;-76
2023/06/08 09:16:51;;;;;;;1.37;1.27;;;;;;;;;;4979606;28;20481;-77
2023/06/08 09:19:18;;;;;;;1.27;0.93;;;;;;;;;;4998315;28;20461;-76
2023/06/08 09:21:47;;;;;;;0.80;0.70;;;;;;;;;;5003990;28;20552;-75
2023/06/08 09:24:19;;;;;;;1.10;1.00;;;;;;;;;;5006541;28;20548;-76
2023/06/08 09:26:47;;;;;;;1.30;1.20;;;;;;;;;;4998359;28;20422;-76
2023/06/08 09:29:30;;;;;;;0.80;0.70;;;;;;;;;;4988050;28;20487;-76
2023/06/08 09:31:58;;;;;;;2.60;0.80;;;;;;;;;;4993885;28;20864;-76
2023/06/08 09:34:25;;;;;;;1.30;1.20;;;;;;;;;;5001384;28;20443;-76
2023/06/08 09:37:03;;;;;;;2.17;1.13;;;;;;;;;;5000895;28;20488;-76
2023/06/08 09:39:37;;;;;;;0.80;0.80;;;;;;;;;;4997738;28;20974;-76
2023/06/08 09:42:05;;;;;;;1.37;0.90;;;;;;;;;;4998640;28;20470;-76
2023/06/08 09:44:33;;;;;;;1.37;1.27;;;;;;;;;;4988059;28;20825;-76
2023/06/08 09:47:18;;;;;;;1.07;0.97;;;;;;;;;;5000836;28;20986;-76
2023/06/08 09:49:45;;;;;;;0.70;0.60;;;;;;;;;;5005788;28;21049;-75
2023/06/08 09:52:14;;;;;;;0.70;0.60;;;;;;;;;;4992424;28;20467;-76
2023/06/08 09:54:44;;;;;;;0.80;0.70;;;;;;;;;;5003178;28;20823;-77
2023/06/08 09:57:13;;;;;;;2.17;2.07;;;;;;;;;;4997383;28;20474;-76
2023/06/08 09:59:44;;;;;;;2.30;2.20;;;;;;;;;;4999075;28;20517;-76
2023/06/08 10:02:16;;;;;;;0.80;0.70;;;;;;;;;;4997219;28;20545;-75
2023/06/08 10:04:47;;;;;;;0.90;0.70;;;;;;;;;;4995094;28;20464;-75
2023/06/08 10:07:19;;;;;;;0.87;0.73;;;;;;;;;;4998515;28;20509;-77
2023/06/08 10:09:48;;;;;;;0.90;0.90;;;;;;;;;;5003746;28;20951;-78
2023/06/08 10:12:15;;;;;;;1.63;1.30;;;;;;;;;;4991899;28;20978;-76
2023/06/08 10:14:42;;;;;;;0.70;0.60;;;;;;;;;;4998865;28;20441;-76
2023/06/08 10:17:10;;;;;;;2.13;2.00;;;;;;;;;;5004616;28;20478;-77
2023/06/08 10:19:38;;;;;;;1.27;0.93;;;;;;;;;;5003966;28;20468;-79
2023/06/08 10:22:05;;;;;;;2.10;2.00;;;;;;;;;;5000115;28;20458;-79
2023/06/08 10:24:34;;;;;;;0.80;0.80;;;;;;;;;;4998272;28;20437;-79
2023/06/08 10:27:09;;;;;;;1.47;1.37;;;;;;;;;;5008862;28;20435;-79
2023/06/08 10:29:36;;;;;;;0.80;0.80;;;;;;;;;;5000554;28;20442;-81
2023/06/08 10:32:05;;;;;;;1.33;1.23;;;;;;;;;;4999681;28;20438;-79
2023/06/08 10:34:38;;;;;;;0.70;0.60;;;;;;;;;;4998465;28;20442;-82
2023/06/08 10:37:04;;;;;;;1.60;1.50;;;;;;;;;;5000918;28;20474;-81
2023/06/08 10:39:43;;;;;;;2.50;2.40;;;;;;;;;;5005774;28;20434;-78
2023/06/08 10:42:16;;;;;;;2.70;2.50;;;;;;;;;;5000862;28;20982;-80
2023/06/08 10:44:52;;;;;;;4.03;1.33;;;;;;;;;;5003450;28;20453;-79
2023/06/08 10:47:18;;;;;;;1.30;1.20;;;;;;;;;;5011594;28;20421;-79
2023/06/08 10:49:51;;;;;;;1.57;0.90;;;;;;;;;;5008323;28;21069;-78
2023/06/08 10:52:19;;;;;;;1.47;1.37;;;;;;;;;;5003493;28;20454;-79
2023/06/08 10:54:51;;;;;;;1.63;1.23;;;;;;;;;;5000495;28;20445;-78
2023/06/08 10:57:34;;;;;;;0.83;0.83;;;;;;;;;;4997165;28;20489;-79
2023/06/08 11:00:04;;;;;;;1.43;1.30;;;;;;;;;;5003573;28;20433;-79
2023/06/08 11:02:32;;;;;;;0.93;0.83;;;;;;;;;;5000425;28;20434;-76
2023/06/08 11:04:59;;;;;;;0.90;0.70;;;;;;;;;;5009170;28;20429;-77
2023/06/08 11:07:26;;;;;;;0.70;0.60;;;;;;;;;;4999215;28;20466;-77
2023/06/08 11:09:54;;;;;;;0.80;0.70;;;;;;;;;;5011058;28;20438;-76
2023/06/08 11:12:20;;;;;;;1.40;1.30;;;;;;;;;;5003315;28;20442;-76
2023/06/08 11:14:48;;;;;;;0.80;0.80;;;;;;;;;;4999517;28;20445;-78
2023/06/08 11:17:14;;;;;;;0.80;0.77;;;;;;;;;;5013046;28;20537;-76
2023/06/08 11:19:41;;;;;;;0.90;0.80;;;;;;;;;;5004202;28;20812;-75
2023/06/08 11:22:08;;;;;;;2.57;1.87;;;;;;;;;;4999937;28;20462;-76
2023/06/08 11:24:35;;;;;;;1.63;1.53;;;;;;;;;;5000335;28;20437;-76
2023/06/08 11:27:03;;;;;;;0.80;0.70;;;;;;;;;;5000133;28;20433;-76
2023/06/08 11:29:31;;;;;;;0.83;0.83;;;;;;;;;;4997743;28;20438;-81
2023/06/08 11:32:08;;;;;;;0.80;0.70;;;;;;;;;;4988431;28;20505;-78
2023/06/08 11:34:36;;;;;;;1.07;0.80;;;;;;;;;;5000389;28;20548;-75
2023/06/08 11:37:03;;;;;;;1.33;1.23;;;;;;;;;;4988866;28;20461;-76
2023/06/08 11:39:33;;;;;;;0.80;0.80;;;;;;;;;;4984098;28;20453;-77
2023/06/08 11:42:00;;;;;;;0.80;0.60;;;;;;;;;;5006992;28;20450;-76
2023/06/08 11:44:30;;;;;;;1.33;1.10;;;;;;;;;;4999702;28;20928;-77
2023/06/08 11:46:58;;;;;;;2.23;1.97;;;;;;;;;;5002671;28;20434;-76
2023/06/08 11:49:24;;;;;;;0.90;0.70;;;;;;;;;;5001225;28;20449;-75
2023/06/08 11:51:52;;;;;;;0.90;0.70;;;;;;;;;;5006979;28;20536;-72
2023/06/08 11:54:20;;;;;;;0.70;0.60;;;;;;;;;;5004387;28;20458;-76
2023/06/08 11:56:47;;;;;;;3.60;1.53;;;;;;;;;;5002108;28;20466;-76
2023/06/08 11:59:14;;;;;;;0.80;0.80;;;;;;;;;;5002126;28;21055;-75
2023/06/08 12:01:55;;;;;;;1.13;1.03;;;;;;;;;;5005652;28;20442;-76
2023/06/08 12:04:28;;;;;;;1.10;1.00;;;;;;;;;;5006587;28;20488;-76
2023/06/08 12:06:55;;;;;;;1.03;0.70;;;;;;;;;;4998266;28;20466;-76
2023/06/08 12:09:21;;;;;;;1.00;0.80;;;;;;;;;;5002502;28;20529;-76
2023/06/08 12:11:48;;;;;;;1.03;0.97;;;;;;;;;;4989738;28;20454;-76
2023/06/08 12:14:15;;;;;;;0.90;0.70;;;;;;;;;;4998954;28;20446;-77
2023/06/08 12:16:42;;;;;;;1.20;0.80;;;;;;;;;;5007372;28;20457;-78
2023/06/08 12:19:12;;;;;;;1.00;0.90;;;;;;;;;;5003489;28;20477;-80
2023/06/08 12:21:39;;;;;;;0.97;0.73;;;;;;;;;;4991530;28;20475;-76
2023/06/08 12:24:08;;;;;;;1.33;1.23;;;;;;;;;;4999964;28;20521;-79
2023/06/08 12:26:34;;;;;;;1.10;1.00;;;;;;;;;;5003030;28;20497;-77
2023/06/08 12:29:05;;;;;;;1.17;0.87;;;;;;;;;;4999238;28;21250;-79
2023/06/08 12:31:33;;;;;;;1.00;0.90;;;;;;;;;;5000123;28;21187;-78
2023/06/08 12:33:59;;;;;;;1.03;0.93;;;;;;;;;;4994732;28;20439;-78
2023/06/08 12:36:30;;;;;;;1.00;0.90;;;;;;;;;;5015678;28;20458;-79
2023/06/08 12:38:57;;;;;;;1.30;0.90;;;;;;;;;;4999330;28;21029;-78
2023/06/08 12:41:24;;;;;;;1.07;0.97;;;;;;;;;;5003627;28;20471;-76
2023/06/08 12:43:51;;;;;;;1.17;1.07;;;;;;;;;;4989386;28;20493;-76
2023/06/08 12:46:18;;;;;;;1.43;1.07;;;;;;;;;;4997018;28;20432;-80
2023/06/08 12:48:47;;;;;;;0.80;0.70;;;;;;;;;;4998488;28;20431;-78
2023/06/08 12:51:15;;;;;;;1.40;1.30;;;;;;;;;;5005701;28;21007;-80
2023/06/08 12:53:44;;;;;;;1.13;1.03;;;;;;;;;;5005871;28;20477;-80
2023/06/08 12:56:11;;;;;;;1.97;1.40;;;;;;;;;;4984304;28;20434;-80
2023/06/08 12:58:38;;;;;;;3.27;1.93;;;;;;;;;;4998714;28;20475;-79
2023/06/08 13:01:05;;;;;;;1.70;1.47;;;;;;;;;;4998158;28;20445;-79
2023/06/08 13:03:31;;;;;;;1.23;1.13;;;;;;;;;;4996934;28;20522;-79
2023/06/08 13:05:58;;;;;;;6.90;1.70;;;;;;;;;;4997788;28;20438;-80
2023/06/08 13:08:25;;;;;;;1.67;1.57;;;;;;;;;;5003835;28;20560;-80
2023/06/08 13:10:54;;;;;;;0.90;0.80;;;;;;;;;;5001320;28;20468;-80
2023/06/08 13:13:21;;;;;;;1.50;1.10;;;;;;;;;;5002983;28;20503;-80
2023/06/08 13:15:53;;;;;;;0.80;0.77;;;;;;;;;;4995671;28;20489;-80
2023/06/08 13:18:21;;;;;;;1.30;1.20;;;;;;;;;;5001235;28;20436;-80
2023/06/08 13:20:48;;;;;;;1.10;1.00;;;;;;;;;;5005056;28;20417;-79
2023/06/08 13:23:16;;;;;;;1.03;0.90;;;;;;;;;;5013171;28;20439;-76
2023/06/08 13:25:42;;;;;;;1.30;0.93;;;;;;;;;;4998337;28;20442;-78
2023/06/08 13:28:11;;;;;;;0.80;0.70;;;;;;;;;;4994500;28;20421;-75
2023/06/08 13:30:38;;;;;;;1.27;1.17;;;;;;;;;;4996465;28;20506;-78
2023/06/08 13:33:04;;;;;;;5.50;1.43;;;;;;;;;;5004692;28;20509;-76
2023/06/08 13:35:31;;;;;;;1.10;1.00;;;;;;;;;;5002861;28;20412;-77
2023/06/08 13:37:58;;;;;;;0.87;0.87;;;;;;;;;;5005592;28;20563;-77
2023/06/08 13:40:31;;;;;;;0.90;0.90;;;;;;;;;;4997427;28;20969;-77
2023/06/08 13:42:58;;;;;;;1.40;1.30;;;;;;;;;;4997530;28;20986;-79
2023/06/08 13:45:28;;;;;;;1.40;1.30;;;;;;;;;;4994887;28;20549;-79
2023/06/08 13:47:55;;;;;;;0.80;0.70;;;;;;;;;;4996745;28;20593;-78
2023/06/08 13:50:22;;;;;;;0.80;0.80;;;;;;;;;;4998934;28;20438;-79
2023/06/08 13:52:49;;;;;;;0.97;0.97;;;;;;;;;;5000659;28;20466;-76
2023/06/08 13:55:16;;;;;;;1.17;1.07;;;;;;;;;;4996836;28;21212;-76
2023/06/08 13:57:42;;;;;;;1.23;1.13;;;;;;;;;;4999167;28;20556;-74
2023/06/08 14:00:10;;;;;;;0.70;0.70;;;;;;;;;;5001935;28;20429;-76
2023/06/08 14:02:39;;;;;;;1.00;0.90;;;;;;;;;;4998030;28;20446;-77
2023/06/08 14:05:06;;;;;;;0.80;0.80;;;;;;;;;;4995705;28;20438;-76
2023/06/08 14:07:34;;;;;;;1.10;1.00;;;;;;;;;;5002395;28;20605;-77
2023/06/08 14:10:02;;;;;;;1.43;1.23;;;;;;;;;;4995868;28;20554;-76
2023/06/08 14:12:29;;;;;;;0.77;0.70;;;;;;;;;;5003504;28;20516;-76
2023/06/08 14:14:56;;;;;;;0.90;0.90;;;;;;;;;;4992376;28;20849;-78
2023/06/08 14:17:23;;;;;;;2.07;1.97;;;;;;;;;;4997461;28;20462;-76
2023/06/08 14:19:51;;;;;;;0.80;0.80;;;;;;;;;;4998206;28;20467;-78
2023/06/08 14:22:18;;;;;;;1.13;1.07;;;;;;;;;;4997861;28;20461;-78
2023/06/08 14:24:45;;;;;;;0.80;0.80;;;;;;;;;;4998588;28;20460;-77
2023/06/08 14:27:13;;;;;;;0.70;0.70;;;;;;;;;;5000253;28;20476;-76
2023/06/08 14:29:40;;;;;;;0.90;0.90;;;;;;;;;;4995549;28;20473;-75
2023/06/08 14:32:07;;;;;;;1.00;0.90;;;;;;;;;;5009169;28;20462;-76
2023/06/08 14:34:34;;;;;;;0.80;0.80;;;;;;;;;;5003162;28;20465;-77
2023/06/08 14:37:02;;;;;;;1.33;1.23;;;;;;;;;;4995174;28;20544;-80
2023/06/08 14:39:29;;;;;;;1.23;1.13;;;;;;;;;;5006100;28;20466;-78
2023/06/08 14:42:00;;;;;;;0.93;0.93;;;;;;;;;;5003420;28;20484;-77
2023/06/08 14:44:27;;;;;;;1.20;1.10;;;;;;;;;;5006885;28;20545;-79
2023/06/08 14:46:53;;;;;;;1.00;0.90;;;;;;;;;;4999344;28;20468;-79
2023/06/08 14:49:20;;;;;;;0.87;0.87;;;;;;;;;;5000699;28;20423;-78